sensor_id;sensor_type;location;lat;lon;timestamp;P1;durP1;ratioP1;P2;durP2;ratioP2
10216;SDS011;5152;59.674;16.838;2023-04-07T00:00:26;2.20;;;2.00;;
10216;SDS011;5152;59.674;16.838;2023-04-07T00:02:53;2.30;;;1.80;;
10216;SDS011;5152;59.674;16.838;2023-04-07T00:05:19;2.07;;;1.70;;
10216;SDS011;5152;59.674;16.838;2023-04-07T00:07:47;3.03;;;2.20;;
10216;SDS011;5152;59.674;16.838;2023-04-07T00:10:14;2.57;;;1.90;;
10216;SDS011;5152;59.674;16.838;2023-04-07T00:12:42;2.50;;;2.20;;
10216;SDS011;5152;59.674;16.838;2023-04-07T00:15:09;2.67;;;1.70;;
10216;SDS011;5152;59.674;16.838;2023-04-07T00:17:36;1.97;;;1.77;;
10216;SDS011;5152;59.674;16.838;2023-04-07T00:20:03;1.90;;;1.60;;
10216;SDS011;5152;59.674;16.838;2023-04-07T00:22:31;2.30;;;1.50;;
10216;SDS011;5152;59.674;16.838;2023-04-07T00:24:58;1.47;;;1.37;;
10216;SDS011;5152;59.674;16.838;2023-04-07T00:27:25;2.03;;;1.70;;
10216;SDS011;5152;59.674;16.838;2023-04-07T00:29:53;1.83;;;1.30;;
10216;SDS011;5152;59.674;16.838;2023-04-07T00:32:20;2.00;;;1.73;;
10216;SDS011;5152;59.674;16.838;2023-04-07T00:34:47;1.97;;;1.60;;
10216;SDS011;5152;59.674;16.838;2023-04-07T00:37:15;2.33;;;1.80;;
10216;SDS011;5152;59.674;16.838;2023-04-07T00:39:43;1.70;;;1.60;;
10216;SDS011;5152;59.674;16.838;2023-04-07T00:42:10;3.50;;;2.07;;
10216;SDS011;5152;59.674;16.838;2023-04-07T00:44:37;3.33;;;2.27;;
10216;SDS011;5152;59.674;16.838;2023-04-07T00:47:05;2.87;;;1.93;;
10216;SDS011;5152;59.674;16.838;2023-04-07T00:49:32;1.90;;;1.63;;
10216;SDS011;5152;59.674;16.838;2023-04-07T00:51:59;1.67;;;1.57;;
10216;SDS011;5152;59.674;16.838;2023-04-07T00:54:26;1.60;;;1.50;;
10216;SDS011;5152;59.674;16.838;2023-04-07T00:56:53;2.23;;;1.60;;
10216;SDS011;5152;59.674;16.838;2023-04-07T00:59:21;1.67;;;1.57;;
10216;SDS011;5152;59.674;16.838;2023-04-07T01:01:49;2.17;;;1.50;;
10216;SDS011;5152;59.674;16.838;2023-04-07T01:04:25;3.53;;;1.67;;
10216;SDS011;5152;59.674;16.838;2023-04-07T01:06:56;2.57;;;2.00;;
10216;SDS011;5152;59.674;16.838;2023-04-07T01:09:29;2.83;;;2.33;;
10216;SDS011;5152;59.674;16.838;2023-04-07T01:12:03;2.60;;;2.00;;
10216;SDS011;5152;59.674;16.838;2023-04-07T01:14:32;5.10;;;2.20;;
10216;SDS011;5152;59.674;16.838;2023-04-07T01:17:02;2.27;;;1.63;;
10216;SDS011;5152;59.674;16.838;2023-04-07T01:19:35;1.70;;;1.60;;
10216;SDS011;5152;59.674;16.838;2023-04-07T01:22:03;1.90;;;1.70;;
10216;SDS011;5152;59.674;16.838;2023-04-07T01:24:44;2.10;;;1.57;;
10216;SDS011;5152;59.674;16.838;2023-04-07T01:27:20;1.83;;;1.70;;
10216;SDS011;5152;59.674;16.838;2023-04-07T01:29:52;2.30;;;1.93;;
10216;SDS011;5152;59.674;16.838;2023-04-07T01:32:19;2.00;;;1.80;;
10216;SDS011;5152;59.674;16.838;2023-04-07T01:34:48;2.27;;;1.80;;
10216;SDS011;5152;59.674;16.838;2023-04-07T01:37:16;2.00;;;1.60;;
10216;SDS011;5152;59.674;16.838;2023-04-07T01:39:43;2.37;;;1.73;;
10216;SDS011;5152;59.674;16.838;2023-04-07T01:42:10;1.50;;;1.40;;
10216;SDS011;5152;59.674;16.838;2023-04-07T01:44:37;2.10;;;1.87;;
10216;SDS011;5152;59.674;16.838;2023-04-07T01:47:06;2.33;;;1.60;;
10216;SDS011;5152;59.674;16.838;2023-04-07T01:49:34;2.63;;;1.80;;
10216;SDS011;5152;59.674;16.838;2023-04-07T01:52:01;2.03;;;1.83;;
10216;SDS011;5152;59.674;16.838;2023-04-07T01:54:28;2.10;;;1.90;;
10216;SDS011;5152;59.674;16.838;2023-04-07T01:56:55;1.90;;;1.73;;
10216;SDS011;5152;59.674;16.838;2023-04-07T01:59:22;1.67;;;1.43;;
10216;SDS011;5152;59.674;16.838;2023-04-07T02:01:49;2.13;;;1.60;;
10216;SDS011;5152;59.674;16.838;2023-04-07T02:04:18;1.47;;;1.37;;
10216;SDS011;5152;59.674;16.838;2023-04-07T02:06:49;1.70;;;1.40;;
10216;SDS011;5152;59.674;16.838;2023-04-07T02:09:18;1.50;;;1.40;;
10216;SDS011;5152;59.674;16.838;2023-04-07T02:11:46;1.60;;;1.50;;
10216;SDS011;5152;59.674;16.838;2023-04-07T02:14:13;1.50;;;1.40;;
10216;SDS011;5152;59.674;16.838;2023-04-07T02:16:42;1.50;;;1.40;;
10216;SDS011;5152;59.674;16.838;2023-04-07T02:19:09;1.67;;;1.40;;
10216;SDS011;5152;59.674;16.838;2023-04-07T02:21:37;1.67;;;1.23;;
10216;SDS011;5152;59.674;16.838;2023-04-07T02:24:05;2.40;;;2.03;;
10216;SDS011;5152;59.674;16.838;2023-04-07T02:26:33;2.27;;;1.77;;
10216;SDS011;5152;59.674;16.838;2023-04-07T02:29:00;1.60;;;1.50;;
10216;SDS011;5152;59.674;16.838;2023-04-07T02:31:27;1.67;;;1.50;;
10216;SDS011;5152;59.674;16.838;2023-04-07T02:33:54;1.50;;;1.13;;
10216;SDS011;5152;59.674;16.838;2023-04-07T02:36:21;1.33;;;1.10;;
10216;SDS011;5152;59.674;16.838;2023-04-07T02:38:49;1.33;;;1.23;;
10216;SDS011;5152;59.674;16.838;2023-04-07T02:41:16;1.50;;;1.40;;
10216;SDS011;5152;59.674;16.838;2023-04-07T02:43:43;1.00;;;1.00;;
10216;SDS011;5152;59.674;16.838;2023-04-07T02:46:10;1.30;;;1.20;;
10216;SDS011;5152;59.674;16.838;2023-04-07T02:48:37;1.43;;;1.33;;
10216;SDS011;5152;59.674;16.838;2023-04-07T02:51:03;1.30;;;1.20;;
10216;SDS011;5152;59.674;16.838;2023-04-07T02:53:31;1.13;;;1.00;;
10216;SDS011;5152;59.674;16.838;2023-04-07T02:55:59;1.80;;;1.50;;
10216;SDS011;5152;59.674;16.838;2023-04-07T02:58:26;1.47;;;1.37;;
10216;SDS011;5152;59.674;16.838;2023-04-07T03:00:52;1.30;;;1.20;;
10216;SDS011;5152;59.674;16.838;2023-04-07T03:03:19;0.97;;;0.97;;
10216;SDS011;5152;59.674;16.838;2023-04-07T03:05:46;1.47;;;1.37;;
10216;SDS011;5152;59.674;16.838;2023-04-07T03:08:13;1.40;;;1.30;;
10216;SDS011;5152;59.674;16.838;2023-04-07T03:10:40;1.70;;;1.60;;
10216;SDS011;5152;59.674;16.838;2023-04-07T03:13:09;1.67;;;1.50;;
10216;SDS011;5152;59.674;16.838;2023-04-07T03:15:37;1.10;;;1.10;;
10216;SDS011;5152;59.674;16.838;2023-04-07T03:18:04;1.80;;;1.60;;
10216;SDS011;5152;59.674;16.838;2023-04-07T03:20:31;1.33;;;1.23;;
10216;SDS011;5152;59.674;16.838;2023-04-07T03:22:58;1.50;;;1.40;;
10216;SDS011;5152;59.674;16.838;2023-04-07T03:25:25;2.03;;;1.50;;
10216;SDS011;5152;59.674;16.838;2023-04-07T03:27:52;1.50;;;1.40;;
10216;SDS011;5152;59.674;16.838;2023-04-07T03:30:20;1.47;;;1.20;;
10216;SDS011;5152;59.674;16.838;2023-04-07T03:32:47;1.30;;;1.20;;
10216;SDS011;5152;59.674;16.838;2023-04-07T03:35:14;1.97;;;1.30;;
10216;SDS011;5152;59.674;16.838;2023-04-07T03:37:41;1.20;;;1.10;;
10216;SDS011;5152;59.674;16.838;2023-04-07T03:40:08;1.23;;;1.20;;
10216;SDS011;5152;59.674;16.838;2023-04-07T03:42:35;2.57;;;1.50;;
10216;SDS011;5152;59.674;16.838;2023-04-07T03:45:02;1.40;;;1.30;;
10216;SDS011;5152;59.674;16.838;2023-04-07T03:47:31;1.80;;;1.43;;
10216;SDS011;5152;59.674;16.838;2023-04-07T03:49:58;1.57;;;1.37;;
10216;SDS011;5152;59.674;16.838;2023-04-07T03:52:25;2.03;;;1.70;;
10216;SDS011;5152;59.674;16.838;2023-04-07T03:54:52;1.60;;;1.50;;
10216;SDS011;5152;59.674;16.838;2023-04-07T03:57:19;1.57;;;1.33;;
10216;SDS011;5152;59.674;16.838;2023-04-07T03:59:46;1.60;;;1.33;;
10216;SDS011;5152;59.674;16.838;2023-04-07T04:02:15;1.40;;;1.30;;
10216;SDS011;5152;59.674;16.838;2023-04-07T04:04:43;1.60;;;1.50;;
10216;SDS011;5152;59.674;16.838;2023-04-07T04:07:10;2.30;;;1.40;;
10216;SDS011;5152;59.674;16.838;2023-04-07T04:09:37;1.53;;;1.43;;
10216;SDS011;5152;59.674;16.838;2023-04-07T04:12:04;1.30;;;1.20;;
10216;SDS011;5152;59.674;16.838;2023-04-07T04:14:31;1.30;;;1.20;;
10216;SDS011;5152;59.674;16.838;2023-04-07T04:16:58;1.23;;;1.10;;
10216;SDS011;5152;59.674;16.838;2023-04-07T04:19:25;2.47;;;1.67;;
10216;SDS011;5152;59.674;16.838;2023-04-07T04:21:53;1.70;;;1.60;;
10216;SDS011;5152;59.674;16.838;2023-04-07T04:24:20;2.13;;;1.50;;
10216;SDS011;5152;59.674;16.838;2023-04-07T04:26:47;1.80;;;1.70;;
10216;SDS011;5152;59.674;16.838;2023-04-07T04:29:13;1.60;;;1.30;;
10216;SDS011;5152;59.674;16.838;2023-04-07T04:31:40;2.43;;;1.50;;
10216;SDS011;5152;59.674;16.838;2023-04-07T04:34:07;1.00;;;1.00;;
10216;SDS011;5152;59.674;16.838;2023-04-07T04:36:34;1.30;;;1.17;;
10216;SDS011;5152;59.674;16.838;2023-04-07T04:39:02;1.37;;;1.27;;
10216;SDS011;5152;59.674;16.838;2023-04-07T04:41:29;1.33;;;1.23;;
10216;SDS011;5152;59.674;16.838;2023-04-07T04:43:56;1.20;;;1.10;;
10216;SDS011;5152;59.674;16.838;2023-04-07T04:46:23;1.33;;;1.23;;
10216;SDS011;5152;59.674;16.838;2023-04-07T04:48:50;1.10;;;1.10;;
10216;SDS011;5152;59.674;16.838;2023-04-07T04:51:18;2.27;;;2.07;;
10216;SDS011;5152;59.674;16.838;2023-04-07T04:53:45;1.93;;;1.20;;
10216;SDS011;5152;59.674;16.838;2023-04-07T04:56:13;1.37;;;1.23;;
10216;SDS011;5152;59.674;16.838;2023-04-07T04:58:40;1.20;;;1.03;;
10216;SDS011;5152;59.674;16.838;2023-04-07T05:01:10;1.20;;;1.10;;
10216;SDS011;5152;59.674;16.838;2023-04-07T05:03:37;1.50;;;1.40;;
10216;SDS011;5152;59.674;16.838;2023-04-07T05:06:04;1.60;;;1.50;;
10216;SDS011;5152;59.674;16.838;2023-04-07T05:08:31;1.33;;;1.23;;
10216;SDS011;5152;59.674;16.838;2023-04-07T05:10:58;2.57;;;1.43;;
10216;SDS011;5152;59.674;16.838;2023-04-07T05:13:27;1.10;;;1.00;;
10216;SDS011;5152;59.674;16.838;2023-04-07T05:15:55;1.07;;;0.97;;
10216;SDS011;5152;59.674;16.838;2023-04-07T05:18:21;1.00;;;1.00;;
10216;SDS011;5152;59.674;16.838;2023-04-07T05:20:48;1.60;;;1.50;;
10216;SDS011;5152;59.674;16.838;2023-04-07T05:23:15;1.27;;;1.17;;
10216;SDS011;5152;59.674;16.838;2023-04-07T05:25:42;1.57;;;1.40;;
10216;SDS011;5152;59.674;16.838;2023-04-07T05:28:09;2.50;;;1.60;;
10216;SDS011;5152;59.674;16.838;2023-04-07T05:30:37;1.23;;;1.13;;
10216;SDS011;5152;59.674;16.838;2023-04-07T05:33:04;1.23;;;1.13;;
10216;SDS011;5152;59.674;16.838;2023-04-07T05:35:31;1.40;;;1.30;;
10216;SDS011;5152;59.674;16.838;2023-04-07T05:37:58;1.60;;;1.20;;
10216;SDS011;5152;59.674;16.838;2023-04-07T05:40:25;1.30;;;1.20;;
10216;SDS011;5152;59.674;16.838;2023-04-07T05:42:52;1.33;;;1.23;;
10216;SDS011;5152;59.674;16.838;2023-04-07T05:45:18;1.17;;;1.10;;
10216;SDS011;5152;59.674;16.838;2023-04-07T05:47:47;3.87;;;1.20;;
10216;SDS011;5152;59.674;16.838;2023-04-07T05:50:14;1.70;;;1.60;;
10216;SDS011;5152;59.674;16.838;2023-04-07T05:52:41;1.30;;;1.20;;
10216;SDS011;5152;59.674;16.838;2023-04-07T05:55:08;0.90;;;0.90;;
10216;SDS011;5152;59.674;16.838;2023-04-07T05:57:35;0.93;;;0.93;;
10216;SDS011;5152;59.674;16.838;2023-04-07T06:00:02;1.30;;;1.20;;
10216;SDS011;5152;59.674;16.838;2023-04-07T06:02:30;1.63;;;1.30;;
10216;SDS011;5152;59.674;16.838;2023-04-07T06:04:58;1.20;;;1.10;;
10216;SDS011;5152;59.674;16.838;2023-04-07T06:07:25;1.40;;;1.30;;
10216;SDS011;5152;59.674;16.838;2023-04-07T06:09:51;1.67;;;1.07;;
10216;SDS011;5152;59.674;16.838;2023-04-07T06:12:18;1.50;;;1.40;;
10216;SDS011;5152;59.674;16.838;2023-04-07T06:14:45;1.30;;;1.20;;
10216;SDS011;5152;59.674;16.838;2023-04-07T06:17:16;1.30;;;1.20;;
10216;SDS011;5152;59.674;16.838;2023-04-07T06:19:43;2.77;;;1.50;;
10216;SDS011;5152;59.674;16.838;2023-04-07T06:22:11;1.50;;;1.40;;
10216;SDS011;5152;59.674;16.838;2023-04-07T06:24:38;1.20;;;1.10;;
10216;SDS011;5152;59.674;16.838;2023-04-07T06:27:05;2.23;;;1.83;;
10216;SDS011;5152;59.674;16.838;2023-04-07T06:29:32;1.30;;;1.20;;
10216;SDS011;5152;59.674;16.838;2023-04-07T06:31:59;1.77;;;1.37;;
10216;SDS011;5152;59.674;16.838;2023-04-07T06:34:26;2.00;;;1.33;;
10216;SDS011;5152;59.674;16.838;2023-04-07T06:36:53;1.87;;;1.43;;
10216;SDS011;5152;59.674;16.838;2023-04-07T06:39:24;1.53;;;1.43;;
10216;SDS011;5152;59.674;16.838;2023-04-07T06:41:51;1.20;;;1.10;;
10216;SDS011;5152;59.674;16.838;2023-04-07T06:44:18;3.30;;;1.80;;
10216;SDS011;5152;59.674;16.838;2023-04-07T06:46:45;2.47;;;1.87;;
10216;SDS011;5152;59.674;16.838;2023-04-07T06:49:14;1.90;;;1.70;;
10216;SDS011;5152;59.674;16.838;2023-04-07T06:51:41;1.40;;;1.30;;
10216;SDS011;5152;59.674;16.838;2023-04-07T06:54:08;1.60;;;1.40;;
10216;SDS011;5152;59.674;16.838;2023-04-07T06:56:39;1.37;;;1.27;;
10216;SDS011;5152;59.674;16.838;2023-04-07T06:59:06;0.90;;;0.90;;
10216;SDS011;5152;59.674;16.838;2023-04-07T07:01:33;2.00;;;1.07;;
10216;SDS011;5152;59.674;16.838;2023-04-07T07:04:01;1.30;;;1.20;;
10216;SDS011;5152;59.674;16.838;2023-04-07T07:06:29;1.33;;;1.20;;
10216;SDS011;5152;59.674;16.838;2023-04-07T07:08:56;1.03;;;1.03;;
10216;SDS011;5152;59.674;16.838;2023-04-07T07:11:23;1.13;;;1.00;;
10216;SDS011;5152;59.674;16.838;2023-04-07T07:13:52;1.30;;;1.20;;
10216;SDS011;5152;59.674;16.838;2023-04-07T07:16:20;1.00;;;1.00;;
10216;SDS011;5152;59.674;16.838;2023-04-07T07:18:48;1.30;;;1.20;;
10216;SDS011;5152;59.674;16.838;2023-04-07T07:21:15;1.10;;;1.00;;
10216;SDS011;5152;59.674;16.838;2023-04-07T07:23:43;2.87;;;1.10;;
10216;SDS011;5152;59.674;16.838;2023-04-07T07:26:09;1.87;;;1.50;;
10216;SDS011;5152;59.674;16.838;2023-04-07T07:28:36;2.47;;;2.00;;
10216;SDS011;5152;59.674;16.838;2023-04-07T07:31:08;1.43;;;1.33;;
10216;SDS011;5152;59.674;16.838;2023-04-07T07:33:37;1.40;;;1.27;;
10216;SDS011;5152;59.674;16.838;2023-04-07T07:36:05;2.53;;;1.27;;
10216;SDS011;5152;59.674;16.838;2023-04-07T07:38:33;1.20;;;1.10;;
10216;SDS011;5152;59.674;16.838;2023-04-07T07:40:59;2.33;;;2.13;;
10216;SDS011;5152;59.674;16.838;2023-04-07T07:43:26;2.70;;;1.80;;
10216;SDS011;5152;59.674;16.838;2023-04-07T07:45:53;2.27;;;2.00;;
10216;SDS011;5152;59.674;16.838;2023-04-07T07:48:22;2.20;;;1.47;;
10216;SDS011;5152;59.674;16.838;2023-04-07T07:50:49;5.37;;;1.53;;
10216;SDS011;5152;59.674;16.838;2023-04-07T07:53:16;2.50;;;2.00;;
10216;SDS011;5152;59.674;16.838;2023-04-07T07:55:44;2.10;;;1.50;;
10216;SDS011;5152;59.674;16.838;2023-04-07T07:58:11;2.63;;;1.90;;
10216;SDS011;5152;59.674;16.838;2023-04-07T08:00:38;2.00;;;1.57;;
10216;SDS011;5152;59.674;16.838;2023-04-07T08:03:05;2.90;;;1.80;;
10216;SDS011;5152;59.674;16.838;2023-04-07T08:05:33;1.50;;;1.40;;
10216;SDS011;5152;59.674;16.838;2023-04-07T08:08:00;3.27;;;2.57;;
10216;SDS011;5152;59.674;16.838;2023-04-07T08:10:27;2.07;;;1.70;;
10216;SDS011;5152;59.674;16.838;2023-04-07T08:12:54;3.07;;;1.70;;
10216;SDS011;5152;59.674;16.838;2023-04-07T08:15:20;3.07;;;2.20;;
10216;SDS011;5152;59.674;16.838;2023-04-07T08:17:47;3.30;;;2.67;;
10216;SDS011;5152;59.674;16.838;2023-04-07T08:20:14;4.33;;;2.50;;
10216;SDS011;5152;59.674;16.838;2023-04-07T08:22:43;4.17;;;3.43;;
10216;SDS011;5152;59.674;16.838;2023-04-07T08:25:10;2.90;;;2.60;;
10216;SDS011;5152;59.674;16.838;2023-04-07T08:27:37;10.50;;;3.40;;
10216;SDS011;5152;59.674;16.838;2023-04-07T08:30:04;6.17;;;3.00;;
10216;SDS011;5152;59.674;16.838;2023-04-07T08:32:35;5.53;;;3.73;;
10216;SDS011;5152;59.674;16.838;2023-04-07T08:35:03;7.50;;;4.83;;
10216;SDS011;5152;59.674;16.838;2023-04-07T08:37:30;3.70;;;2.50;;
10216;SDS011;5152;59.674;16.838;2023-04-07T08:39:58;5.63;;;3.23;;
10216;SDS011;5152;59.674;16.838;2023-04-07T08:42:26;3.20;;;2.13;;
10216;SDS011;5152;59.674;16.838;2023-04-07T08:44:55;3.07;;;2.67;;
10216;SDS011;5152;59.674;16.838;2023-04-07T08:47:23;3.57;;;2.77;;
10216;SDS011;5152;59.674;16.838;2023-04-07T08:49:51;2.17;;;1.80;;
10216;SDS011;5152;59.674;16.838;2023-04-07T08:52:21;5.03;;;2.80;;
10216;SDS011;5152;59.674;16.838;2023-04-07T08:54:48;2.17;;;1.90;;
10216;SDS011;5152;59.674;16.838;2023-04-07T08:57:18;9.90;;;2.93;;
10216;SDS011;5152;59.674;16.838;2023-04-07T08:59:46;2.37;;;1.53;;
10216;SDS011;5152;59.674;16.838;2023-04-07T09:02:16;1.73;;;1.20;;
10216;SDS011;5152;59.674;16.838;2023-04-07T09:04:43;1.70;;;1.40;;
10216;SDS011;5152;59.674;16.838;2023-04-07T09:07:11;4.57;;;1.27;;
10216;SDS011;5152;59.674;16.838;2023-04-07T09:09:37;2.23;;;1.23;;
10216;SDS011;5152;59.674;16.838;2023-04-07T09:12:05;2.20;;;1.20;;
10216;SDS011;5152;59.674;16.838;2023-04-07T09:14:33;1.60;;;1.10;;
10216;SDS011;5152;59.674;16.838;2023-04-07T09:17:00;2.73;;;1.40;;
10216;SDS011;5152;59.674;16.838;2023-04-07T09:19:27;1.43;;;1.10;;
10216;SDS011;5152;59.674;16.838;2023-04-07T09:21:55;1.77;;;1.47;;
10216;SDS011;5152;59.674;16.838;2023-04-07T09:24:23;1.70;;;1.60;;
10216;SDS011;5152;59.674;16.838;2023-04-07T09:26:53;1.27;;;1.17;;
10216;SDS011;5152;59.674;16.838;2023-04-07T09:29:35;2.57;;;2.37;;
10216;SDS011;5152;59.674;16.838;2023-04-07T09:32:03;1.83;;;1.63;;
10216;SDS011;5152;59.674;16.838;2023-04-07T09:34:31;1.73;;;1.43;;
10216;SDS011;5152;59.674;16.838;2023-04-07T09:36:58;2.03;;;1.83;;
10216;SDS011;5152;59.674;16.838;2023-04-07T09:39:26;1.27;;;1.17;;
10216;SDS011;5152;59.674;16.838;2023-04-07T09:41:53;1.37;;;1.27;;
10216;SDS011;5152;59.674;16.838;2023-04-07T09:44:21;1.60;;;1.40;;
10216;SDS011;5152;59.674;16.838;2023-04-07T09:46:49;1.60;;;1.20;;
10216;SDS011;5152;59.674;16.838;2023-04-07T09:49:17;3.67;;;2.93;;
10216;SDS011;5152;59.674;16.838;2023-04-07T09:51:51;2.60;;;1.73;;
10216;SDS011;5152;59.674;16.838;2023-04-07T09:54:30;3.00;;;2.33;;
10216;SDS011;5152;59.674;16.838;2023-04-07T09:57:00;2.77;;;1.47;;
10216;SDS011;5152;59.674;16.838;2023-04-07T09:59:27;2.13;;;1.93;;
10216;SDS011;5152;59.674;16.838;2023-04-07T10:01:56;3.10;;;1.43;;
10216;SDS011;5152;59.674;16.838;2023-04-07T10:04:24;3.63;;;1.80;;
10216;SDS011;5152;59.674;16.838;2023-04-07T10:06:51;4.27;;;2.97;;
10216;SDS011;5152;59.674;16.838;2023-04-07T10:09:18;1.60;;;1.40;;
10216;SDS011;5152;59.674;16.838;2023-04-07T10:11:46;2.47;;;2.27;;
10216;SDS011;5152;59.674;16.838;2023-04-07T10:14:13;2.50;;;2.30;;
10216;SDS011;5152;59.674;16.838;2023-04-07T10:16:41;3.63;;;2.17;;
10216;SDS011;5152;59.674;16.838;2023-04-07T10:19:10;3.90;;;2.00;;
10216;SDS011;5152;59.674;16.838;2023-04-07T10:21:38;2.40;;;1.60;;
10216;SDS011;5152;59.674;16.838;2023-04-07T10:24:08;7.13;;;4.40;;
10216;SDS011;5152;59.674;16.838;2023-04-07T10:26:44;3.00;;;2.13;;
10216;SDS011;5152;59.674;16.838;2023-04-07T10:29:12;4.83;;;3.20;;
10216;SDS011;5152;59.674;16.838;2023-04-07T10:31:40;2.63;;;2.23;;
10216;SDS011;5152;59.674;16.838;2023-04-07T10:34:08;2.10;;;1.50;;
10216;SDS011;5152;59.674;16.838;2023-04-07T10:36:37;3.70;;;2.20;;
10216;SDS011;5152;59.674;16.838;2023-04-07T10:39:34;1.40;;;1.27;;
10216;SDS011;5152;59.674;16.838;2023-04-07T10:42:01;2.03;;;1.67;;
10216;SDS011;5152;59.674;16.838;2023-04-07T10:44:44;3.53;;;1.90;;
10216;SDS011;5152;59.674;16.838;2023-04-07T10:47:14;4.73;;;2.30;;
10216;SDS011;5152;59.674;16.838;2023-04-07T10:52:39;1.90;;;1.63;;
10216;SDS011;5152;59.674;16.838;2023-04-07T10:58:18;0.87;;;0.87;;
10216;SDS011;5152;59.674;16.838;2023-04-07T11:03:56;1.47;;;1.30;;
10216;SDS011;5152;59.674;16.838;2023-04-07T11:06:24;4.30;;;1.63;;
10216;SDS011;5152;59.674;16.838;2023-04-07T11:08:53;3.70;;;2.13;;
10216;SDS011;5152;59.674;16.838;2023-04-07T11:14:03;2.70;;;1.70;;
10216;SDS011;5152;59.674;16.838;2023-04-07T11:16:38;2.30;;;1.80;;
10216;SDS011;5152;59.674;16.838;2023-04-07T11:19:06;4.53;;;2.40;;
10216;SDS011;5152;59.674;16.838;2023-04-07T11:21:33;2.97;;;1.90;;
10216;SDS011;5152;59.674;16.838;2023-04-07T11:24:02;4.10;;;2.17;;
10216;SDS011;5152;59.674;16.838;2023-04-07T11:26:29;3.90;;;2.50;;
10216;SDS011;5152;59.674;16.838;2023-04-07T11:28:56;5.63;;;2.93;;
10216;SDS011;5152;59.674;16.838;2023-04-07T11:31:23;7.50;;;3.03;;
10216;SDS011;5152;59.674;16.838;2023-04-07T11:33:51;9.43;;;3.17;;
10216;SDS011;5152;59.674;16.838;2023-04-07T11:36:25;6.73;;;4.17;;
10216;SDS011;5152;59.674;16.838;2023-04-07T11:38:53;7.13;;;2.37;;
10216;SDS011;5152;59.674;16.838;2023-04-07T11:41:23;5.20;;;2.50;;
10216;SDS011;5152;59.674;16.838;2023-04-07T11:44:02;5.57;;;2.13;;
10216;SDS011;5152;59.674;16.838;2023-04-07T11:46:30;8.90;;;2.10;;
10216;SDS011;5152;59.674;16.838;2023-04-07T11:49:07;2.87;;;2.27;;
10216;SDS011;5152;59.674;16.838;2023-04-07T11:51:35;4.80;;;2.27;;
10216;SDS011;5152;59.674;16.838;2023-04-07T11:54:02;5.00;;;1.77;;
10216;SDS011;5152;59.674;16.838;2023-04-07T11:56:30;2.77;;;1.90;;
10216;SDS011;5152;59.674;16.838;2023-04-07T11:59:07;5.33;;;1.50;;
10216;SDS011;5152;59.674;16.838;2023-04-07T12:01:37;2.97;;;1.90;;
10216;SDS011;5152;59.674;16.838;2023-04-07T12:04:05;3.90;;;2.33;;
10216;SDS011;5152;59.674;16.838;2023-04-07T12:06:32;3.03;;;1.43;;
10216;SDS011;5152;59.674;16.838;2023-04-07T12:09:02;2.13;;;1.47;;
10216;SDS011;5152;59.674;16.838;2023-04-07T12:11:31;2.13;;;1.30;;
10216;SDS011;5152;59.674;16.838;2023-04-07T12:13:58;2.10;;;1.67;;
10216;SDS011;5152;59.674;16.838;2023-04-07T12:16:25;2.97;;;1.53;;
10216;SDS011;5152;59.674;16.838;2023-04-07T12:18:53;2.60;;;1.27;;
10216;SDS011;5152;59.674;16.838;2023-04-07T12:21:20;1.63;;;1.30;;
10216;SDS011;5152;59.674;16.838;2023-04-07T12:23:46;2.23;;;1.60;;
10216;SDS011;5152;59.674;16.838;2023-04-07T12:26:13;3.10;;;1.80;;
10216;SDS011;5152;59.674;16.838;2023-04-07T12:28:42;2.30;;;1.50;;
10216;SDS011;5152;59.674;16.838;2023-04-07T12:31:09;2.83;;;1.47;;
10216;SDS011;5152;59.674;16.838;2023-04-07T12:33:36;2.37;;;1.60;;
10216;SDS011;5152;59.674;16.838;2023-04-07T12:36:03;4.20;;;1.83;;
10216;SDS011;5152;59.674;16.838;2023-04-07T12:38:30;3.10;;;1.37;;
10216;SDS011;5152;59.674;16.838;2023-04-07T12:40:57;2.77;;;2.20;;
10216;SDS011;5152;59.674;16.838;2023-04-07T12:43:27;2.80;;;1.63;;
10216;SDS011;5152;59.674;16.838;2023-04-07T12:45:56;2.40;;;1.43;;
10216;SDS011;5152;59.674;16.838;2023-04-07T12:48:23;3.20;;;1.50;;
10216;SDS011;5152;59.674;16.838;2023-04-07T12:50:51;3.83;;;2.57;;
10216;SDS011;5152;59.674;16.838;2023-04-07T12:53:18;3.03;;;2.17;;
10216;SDS011;5152;59.674;16.838;2023-04-07T12:55:45;5.63;;;2.20;;
10216;SDS011;5152;59.674;16.838;2023-04-07T12:58:13;3.77;;;2.50;;
10216;SDS011;5152;59.674;16.838;2023-04-07T13:00:41;6.80;;;2.90;;
10216;SDS011;5152;59.674;16.838;2023-04-07T13:03:09;6.03;;;2.30;;
10216;SDS011;5152;59.674;16.838;2023-04-07T13:05:36;3.90;;;2.53;;
10216;SDS011;5152;59.674;16.838;2023-04-07T13:08:03;3.90;;;2.17;;
10216;SDS011;5152;59.674;16.838;2023-04-07T13:10:32;6.33;;;2.83;;
10216;SDS011;5152;59.674;16.838;2023-04-07T13:12:58;2.60;;;2.30;;
10216;SDS011;5152;59.674;16.838;2023-04-07T13:15:25;2.67;;;2.27;;
10216;SDS011;5152;59.674;16.838;2023-04-07T13:17:53;2.53;;;2.10;;
10216;SDS011;5152;59.674;16.838;2023-04-07T13:20:22;4.23;;;2.17;;
10216;SDS011;5152;59.674;16.838;2023-04-07T13:22:52;3.77;;;2.30;;
10216;SDS011;5152;59.674;16.838;2023-04-07T13:25:19;5.63;;;1.90;;
10216;SDS011;5152;59.674;16.838;2023-04-07T13:27:46;4.17;;;2.17;;
10216;SDS011;5152;59.674;16.838;2023-04-07T13:30:12;3.67;;;2.50;;
10216;SDS011;5152;59.674;16.838;2023-04-07T13:32:40;3.13;;;2.10;;
10216;SDS011;5152;59.674;16.838;2023-04-07T13:35:07;6.10;;;1.80;;
10216;SDS011;5152;59.674;16.838;2023-04-07T13:37:35;8.77;;;1.97;;
10216;SDS011;5152;59.674;16.838;2023-04-07T13:40:03;2.20;;;2.00;;
10216;SDS011;5152;59.674;16.838;2023-04-07T13:42:30;2.13;;;1.87;;
10216;SDS011;5152;59.674;16.838;2023-04-07T13:44:57;2.80;;;2.03;;
10216;SDS011;5152;59.674;16.838;2023-04-07T13:47:24;3.07;;;1.87;;
10216;SDS011;5152;59.674;16.838;2023-04-07T13:49:53;3.20;;;2.23;;
10216;SDS011;5152;59.674;16.838;2023-04-07T13:52:20;2.40;;;1.60;;
10216;SDS011;5152;59.674;16.838;2023-04-07T13:54:49;13.07;;;2.50;;
10216;SDS011;5152;59.674;16.838;2023-04-07T13:57:15;4.93;;;2.23;;
10216;SDS011;5152;59.674;16.838;2023-04-07T13:59:44;14.83;;;2.70;;
10216;SDS011;5152;59.674;16.838;2023-04-07T14:02:12;4.10;;;3.30;;
10216;SDS011;5152;59.674;16.838;2023-04-07T14:04:39;5.50;;;2.40;;
10216;SDS011;5152;59.674;16.838;2023-04-07T14:07:05;2.43;;;1.43;;
10216;SDS011;5152;59.674;16.838;2023-04-07T14:09:32;4.27;;;2.57;;
10216;SDS011;5152;59.674;16.838;2023-04-07T14:12:01;2.43;;;2.00;;
10216;SDS011;5152;59.674;16.838;2023-04-07T14:14:27;2.10;;;1.90;;
10216;SDS011;5152;59.674;16.838;2023-04-07T14:16:55;2.97;;;2.20;;
10216;SDS011;5152;59.674;16.838;2023-04-07T14:19:22;2.73;;;1.90;;
10216;SDS011;5152;59.674;16.838;2023-04-07T14:21:49;5.10;;;2.40;;
10216;SDS011;5152;59.674;16.838;2023-04-07T14:24:16;2.57;;;2.00;;
10216;SDS011;5152;59.674;16.838;2023-04-07T14:26:44;3.73;;;1.80;;
10216;SDS011;5152;59.674;16.838;2023-04-07T14:29:12;4.17;;;1.83;;
10216;SDS011;5152;59.674;16.838;2023-04-07T14:31:39;4.43;;;2.17;;
10216;SDS011;5152;59.674;16.838;2023-04-07T14:34:06;3.27;;;1.90;;
10216;SDS011;5152;59.674;16.838;2023-04-07T14:36:33;5.10;;;2.03;;
10216;SDS011;5152;59.674;16.838;2023-04-07T14:39:00;2.17;;;1.67;;
10216;SDS011;5152;59.674;16.838;2023-04-07T14:41:28;2.40;;;1.93;;
10216;SDS011;5152;59.674;16.838;2023-04-07T14:43:55;6.10;;;1.60;;
10216;SDS011;5152;59.674;16.838;2023-04-07T14:46:24;3.87;;;1.77;;
10216;SDS011;5152;59.674;16.838;2023-04-07T14:48:51;2.93;;;2.10;;
10216;SDS011;5152;59.674;16.838;2023-04-07T14:51:18;3.23;;;2.30;;
10216;SDS011;5152;59.674;16.838;2023-04-07T14:53:45;3.43;;;2.30;;
10216;SDS011;5152;59.674;16.838;2023-04-07T14:56:17;4.67;;;2.63;;
10216;SDS011;5152;59.674;16.838;2023-04-07T14:58:45;3.33;;;2.27;;
10216;SDS011;5152;59.674;16.838;2023-04-07T15:01:12;6.33;;;2.80;;
10216;SDS011;5152;59.674;16.838;2023-04-07T15:03:40;5.10;;;2.23;;